Terminal Aerodrome Forecast
Issued by NWS

Home | Current Version | Previous Version | Graphics & Text | Print | Product List | Glossary On
Versions: 1 2 3 4 5 6 7 8 9 10 11 12 13 14
000
FTUS43 KGRB 241735
TAFATW
TAF
KATW 241735Z 2418/2518 20011G17KT P6SM SCT050
     FM250100 20008KT P6SM SCT250
     FM251500 22012G19KT P6SM SCT035 BKN200=

USA.gov is the U.S. government's official web portal to all federal, state and local government web resources and services.